M I D A S
Marine Information and Data Acquisition System
Tripno 712 of the Zeeleeuw from 2004-05-05 06:36:16 to 2004-05-05 12:16:44
Back to CruiseResearch ActivitiesStationsMapUnderway DataData graphs

EquipmentUnitsComment
TimeDGPSUTC
LatitudeDGPSDM.mWGS84
LongitudeDGPSDM.mWGS84
TemperatureSBE03/SBE38deg celciusITS90
ConductivitySBE21S/mITS90
SalinitySBE21 Practical Salinity Units
ChlorophylAChelsea fluorimeterg/lCalibrated in Aceton
Missing or incorrect values are displayed as -999
Sea surface data collected by the RV Zeeleeuw from 2004-05-05 06:36:16 to 2004-05-05 12:16:44
Time Latitude Longitude Temperature Conductivity Salinity ChlorophylA
2004-05-05 06:37:18 51°13.632 2°55.965 18.04542 0.069095 0.401575 7.578683
2004-05-05 06:38:18 51°13.663 2°55.835 18.076332 0.069095 0.401666 7.612392
2004-05-05 06:39:18 51°13.67 2°55.755 18.185016 0.069095 0.401968 7.612392
2004-05-05 06:40:18 51°13.675 2°55.76 18.079118 0.069095 0.401652 7.578683
2004-05-05 06:41:18 51°13.725 2°55.724 18.115295 0.068991 0.401174 7.578683
2004-05-05 06:42:18 51°13.846 2°55.649 17.843969 0.068991 0.401104 7.612392
2004-05-05 06:43:18 51°13.988 2°55.609 17.946435 0.068991 0.401048 7.578683
2004-05-05 06:44:18 51°14.082 2°55.486 17.97889 0.069095 0.401708 7.578683
2004-05-05 06:45:18 51°14.215 2°55.338 17.970726 0.069095 0.401821 7.578683
2004-05-05 06:46:18 51°14.343 2°55.111 17.911045 0.069095 0.401715 7.578683
2004-05-05 06:47:18 51°14.456 2°54.816 18.112884 0.069095 0.401652 7.612392
2004-05-05 06:48:18 51°14.481 2°54.477 18.075749 0.069095 0.401666 7.578683
2004-05-05 06:49:18 51°14.47 2°54.286 18.067638 0.069095 0.401877 7.544973
2004-05-05 06:50:18 51°14.48 2°54.156 18.076872 0.069095 0.402025 7.511264
2004-05-05 06:51:18 51°14.491 2°54.053 18.08257 0.068991 0.401525 7.511264
2004-05-05 06:52:18 51°14.499 2°53.97 18.089391 0.068991 0.401567 7.544973
2004-05-05 06:53:18 51°14.505 2°53.9 18.102282 0.068991 0.401616 7.511264
2004-05-05 06:54:18 51°14.568 2°53.812 18.10224 0.068991 0.401715 7.511264
2004-05-05 06:55:18 51°14.742 2°53.689 17.93785 0.068991 0.401356 7.544973
2004-05-05 06:56:18 51°14.937 2°53.541 17.939433 0.069095 0.401631 7.443845
2004-05-05 06:57:17 51°15.138 2°53.453 17.915923 0.069095 0.401434 7.477554
2004-05-05 06:58:17 51°15.34 2°53.324 17.934932 0.069095 0.401238 7.511264
2004-05-05 06:59:18 51°15.552 2°53.198 17.96631 0.069095 0.401343 7.544973
2004-05-05 07:00:18 51°15.76 2°53.071 17.978224 0.069095 0.401378 7.511264
2004-05-05 07:01:18 51°15.966 2°52.934 17.997423 0.069095 0.401413 7.511264
2004-05-05 07:02:17 51°16.169 2°52.8 18.01566 0.069095 0.401469 7.477554
2004-05-05 07:03:18 51°16.38 2°52.675 18.016909 0.069199 0.402045 7.477554
2004-05-05 07:04:18 51°16.588 2°52.564 18.024818 0.069199 0.401926 7.477554
2004-05-05 07:05:18 51°16.79 2°52.459 18.040509 0.068471 0.397505 7.511264
2004-05-05 07:06:18 51°16.991 2°52.359 18.048041 0.060466 0.349539 7.477554
2004-05-05 07:07:18 51°17.192 2°52.249 18.064642 0.058076 0.33528 7.511264
2004-05-05 07:08:18 51°17.392 2°52.127 18.09172 0.048825 0.280448 7.544973
2004-05-05 07:09:18 51°17.575 2°51.942 12.574039 2.46911 17.910499 68.087059
2004-05-05 07:10:16 51°17.752 2°51.767 12.243006 3.904193 33.454272 56.423606
2004-05-05 07:11:18 51°17.944 2°51.577 12.132945 3.907253 33.659189 62.862101
2004-05-05 07:12:17 51°18.132 2°51.394 12.042892 3.88691 33.58823 68.120768
2004-05-05 07:13:17 51°18.325 2°51.203 11.884524 3.697091 31.861266 68.053349
2004-05-05 07:14:18 51°18.52 2°51.008 11.806498 3.717748 32.186789 68.01964
2004-05-05 07:15:18 51°18.711 2°50.816 11.823789 3.834737 33.355264 67.98593
2004-05-05 07:16:17 51°18.897 2°50.621 11.840711 3.843275 33.423146 68.01964
2004-05-05 07:17:18 51°19.092 2°50.423 11.836242 3.851813 33.493836 68.01964
2004-05-05 07:18:18 51°19.283 2°50.233 11.843356 3.856029 33.534697 68.120768
2004-05-05 07:19:18 51°19.453 2°49.991 11.785186 3.861194 33.613238 68.120768
2004-05-05 07:20:18 51°19.608 2°49.708 11.694155 3.855925 33.639843 68.087059
2004-05-05 07:21:16 51°19.714 2°49.386 11.664713 3.85192 33.655267 68.154477
2004-05-05 07:22:18 51°19.77 2°48.997 11.66357 3.851183 33.659549 68.154477
2004-05-05 07:23:16 51°19.807 2°48.625 11.648249 3.848442 33.633572 68.120768
2004-05-05 07:24:18 51°19.85 2°48.224 11.614027 3.839061 33.575118 68.120768
2004-05-05 07:25:17 51°19.893 2°47.841 11.537972 3.829049 33.514714 68.087059
2004-05-05 07:26:18 51°19.94 2°47.444 11.471186 3.813766 33.441397 68.053349
2004-05-05 07:27:18 51°19.986 2°47.05 11.41186 3.802173 33.386766 68.01964
2004-05-05 07:28:18 51°20.035 2°46.658 11.373337 3.792161 33.331738 68.053349
2004-05-05 07:29:17 51°20.092 2°46.28 11.380272 3.793321 33.355983 68.01964
2004-05-05 07:30:18 51°20.176 2°45.903 11.392532 3.799223 33.411646 68.053349
2004-05-05 07:31:18 51°20.25 2°45.518 11.383716 3.804493 33.458246 68.053349
2004-05-05 07:32:18 51°20.306 2°45.121 11.400659 3.807128 33.484062 68.053349
2004-05-05 07:33:18 51°20.363 2°44.729 11.422325 3.815138 33.545987 68.087059
2004-05-05 07:34:18 51°20.42 2°44.339 11.467517 3.826416 33.630504 68.154477
2004-05-05 07:35:18 51°20.472 2°43.953 11.554097 3.849814 33.804667 57.906819
2004-05-05 07:36:18 51°20.525 2°43.57 11.521019 3.875744 33.998156 42.299366
2004-05-05 07:37:17 51°20.578 2°43.189 11.420444 3.886392 34.209088 35.254101
2004-05-05 07:38:18 51°20.632 2°42.795 11.382797 3.884389 34.220264 32.557349
2004-05-05 07:39:18 51°20.687 2°42.411 11.317876 3.883758 34.264827 28.175127
2004-05-05 07:40:18 51°20.689 2°42.156 11.24944 3.875115 34.252015 23.152426
2004-05-05 07:41:18 51°20.622 2°42.062 11.231537 3.881124 34.349016 21.601794
2004-05-05 07:42:18 51°20.587 2°42.098 11.232274 3.874167 34.294431 21.601794
2004-05-05 07:43:18 51°20.613 2°42.19 11.233701 3.88144 34.352138 22.95017
2004-05-05 07:44:18 51°20.651 2°42.315 11.23278 3.879859 34.345431 22.545657
2004-05-05 07:45:18 51°20.662 2°42.404 11.255192 3.879016 34.339331 22.849042
2004-05-05 07:46:17 51°20.619 2°42.437 11.232504 3.879964 34.333126 22.91646
2004-05-05 07:47:18 51°20.556 2°42.361 11.251419 3.88007 34.339355 23.085007
2004-05-05 07:48:18 51°20.574 2°42.23 11.253811 3.879753 34.323636 23.691777
2004-05-05 07:49:18 51°20.619 2°42.19 11.236646 3.880175 34.338171 23.826614
2004-05-05 07:50:17 51°20.639 2°42.211 11.233194 3.88007 34.343803 23.590648
2004-05-05 07:51:18 51°20.646 2°42.252 11.225139 3.879543 34.345276 22.781623
2004-05-05 07:52:18 51°20.658 2°42.297 11.225691 3.879543 34.346018 22.815332
2004-05-05 07:53:18 51°20.673 2°42.34 11.226658 3.878805 34.342442 22.849042
2004-05-05 07:54:18 51°20.685 2°42.387 11.236876 3.879016 34.340073 22.983879
2004-05-05 07:55:18 51°20.676 2°42.434 11.256802 3.879226 34.324363 23.152426
2004-05-05 07:56:18 51°20.659 2°42.48 11.268074 3.879332 34.315033 24.197418
2004-05-05 07:57:18 51°20.597 2°42.484 11.284679 3.878383 34.291618 24.905315
2004-05-05 07:58:18 51°20.562 2°42.369 11.297693 3.878488 34.281567 25.680631
2004-05-05 07:59:18 51°20.605 2°42.231 11.288772 3.87912 34.281888 26.624494
2004-05-05 08:00:22 51°20.673 2°42.069 11.264624 3.879331 34.302451 24.703059
2004-05-05 08:01:21 51°20.742 2°41.867 11.256204 3.87891 34.312355 23.388392
2004-05-05 08:02:20 51°20.855 2°41.564 11.241571 3.878067 34.315144 22.882751
2004-05-05 08:03:21 51°21.015 2°41.293 11.238119 3.877856 34.322696 26.995298
2004-05-05 08:04:27 51°21.227 2°41.091 11.26766 3.877118 34.305043 31.107845
2004-05-05 08:05:26 51°21.426 2°40.988 11.28822 3.876485 34.278826 30.2314
2004-05-05 08:06:25 51°21.63 2°40.876 11.312544 3.875853 34.250426 28.815606
2004-05-05 08:07:27 51°21.849 2°40.762 11.327713 3.876696 34.234385 29.759469
2004-05-05 08:08:27 51°22.057 2°40.665 11.328908 3.877644 34.245202 28.883024
2004-05-05 08:09:26 51°22.261 2°40.587 11.324909 3.878488 34.254982 28.54593
2004-05-05 08:10:33 51°22.494 2°40.537 11.332079 3.878382 34.245092 27.500939
2004-05-05 08:11:32 51°22.706 2°40.528 11.361164 3.878803 34.23229 30.770751
2004-05-05 08:12:32 51°22.915 2°40.505 11.37398 3.878592 34.214752 30.568494
2004-05-05 08:13:32 51°23.126 2°40.505 11.375587 3.878698 34.202546 31.41123
2004-05-05 08:14:33 51°23.343 2°40.486 11.378297 3.876906 34.184192 35.490067
2004-05-05 08:15:33 51°23.556 2°40.464 11.350643 3.869105 34.109715 41.220665
2004-05-05 08:16:33 51°23.769 2°40.435 11.282057 3.870582 34.164626 38.861007
2004-05-05 08:17:33 51°23.978 2°40.431 11.231169 3.863731 34.152359 35.759742
2004-05-05 08:18:33 51°24.183 2°40.462 11.178123 3.866788 34.231222 34.141691
2004-05-05 08:19:32 51°24.387 2°40.489 11.161583 3.864575 34.247111 32.456221
2004-05-05 08:20:33 51°24.601 2°40.507 11.154072 3.864154 34.257767 30.096563
2004-05-05 08:21:32 51°24.803 2°40.523 11.134207 3.864154 34.265924 29.658341
2004-05-05 08:22:32 51°25.007 2°40.542 11.141628 3.862889 34.257127 29.422375
2004-05-05 08:23:33 51°25.217 2°40.546 11.143518 3.862257 34.253098 30.770751
2004-05-05 08:24:32 51°25.42 2°40.558 11.136881 3.862152 34.262442 30.163982
2004-05-05 08:25:33 51°25.623 2°40.636 11.141029 3.862678 34.255784 31.478648
2004-05-05 08:26:32 51°25.812 2°40.745 11.131856 3.861203 34.2449 32.658477
2004-05-05 08:27:33 51°25.998 2°40.881 11.101931 3.858989 34.238582 32.725896
2004-05-05 08:28:32 51°26.175 2°41.011 11.067518 3.854879 34.234265 31.37752
2004-05-05 08:29:33 51°26.343 2°41.189 10.977661 3.84961 34.236305 30.062853
2004-05-05 08:30:32 51°26.489 2°41.396 10.937357 3.842127 34.2313 28.276255
2004-05-05 08:31:32 51°26.607 2°41.648 10.912524 3.839492 34.226747 27.602067
2004-05-05 08:32:33 51°26.709 2°41.925 10.896565 3.837595 34.228036 26.759332
2004-05-05 08:33:32 51°26.812 2°42.182 10.89786 3.837279 34.221907 26.32111
2004-05-05 08:34:33 51°26.922 2°42.45 10.894252 3.837595 34.223558 27.096426
2004-05-05 08:35:33 51°27.029 2°42.714 10.905262 3.837806 34.225653 26.89417
2004-05-05 08:36:33 51°27.116 2°43.002 10.903828 3.837384 34.224447 27.197554
2004-05-05 08:37:37 51°27.213 2°43.315 10.924548 3.837806 34.227146 27.399811
2004-05-05 08:38:37 51°27.3 2°43.606 10.921866 3.83886 34.228668 28.478512
2004-05-05 08:39:42 51°27.349 2°43.949 10.929727 3.839703 34.226604 29.220118
2004-05-05 08:40:42 51°27.329 2°44.275 10.961625 3.841073 34.219341 29.69205
2004-05-05 08:41:42 51°27.226 2°44.566 10.995864 3.842759 34.208527 29.354956
2004-05-05 08:42:41 51°27.044 2°44.747 11.031285 3.846131 34.211485 29.1527
2004-05-05 08:43:42 51°26.838 2°44.905 11.050719 3.848977 34.212937 29.220118
2004-05-05 08:44:42 51°26.642 2°45.074 11.05958 3.850031 34.210009 28.849315
2004-05-05 08:45:42 51°26.447 2°45.249 11.058196 3.849925 34.205995 27.703195
2004-05-05 08:46:41 51°26.257 2°45.426 11.025283 3.847607 34.197131 27.130136
2004-05-05 08:47:48 51°26.046 2°45.634 11.013831 3.842547 34.166296 25.916597
2004-05-05 08:48:52 51°25.952 2°45.945 11.017248 3.838331 34.140089 26.523366
2004-05-05 08:49:52 51°25.986 2°46.256 11.013785 3.836961 34.113897 28.343674
2004-05-05 08:50:52 51°26.085 2°46.538 11.000806 3.821994 33.983339 28.916734
2004-05-05 08:51:52 51°26.183 2°46.82 10.988242 3.827897 34.050719 29.894306
2004-05-05 08:52:52 51°26.278 2°47.103 10.974704 3.825156 34.027991 30.298819
2004-05-05 08:53:52 51°26.378 2°47.384 10.955987 3.821889 34.014095 30.332529
2004-05-05 08:54:52 51°26.474 2°47.659 10.952844 3.813352 33.939773 30.905589
2004-05-05 08:55:52 51°26.569 2°47.939 10.946094 3.81683 33.979451 31.310101
2004-05-05 08:56:52 51°26.663 2°48.218 10.954554 3.815249 33.966724 31.916871
2004-05-05 08:57:52 51°26.769 2°48.486 10.931716 3.812719 33.946064 32.759606
2004-05-05 08:58:52 51°26.924 2°48.687 10.929589 3.811244 33.943993 32.759606
2004-05-05 08:59:52 51°27.084 2°48.876 10.928294 3.809347 33.924426 34.074272
2004-05-05 09:00:52 51°27.27 2°48.998 10.920664 3.806817 33.905974 33.602341
2004-05-05 09:01:52 51°27.475 2°49.035 10.910535 3.804288 33.886778 33.0967
2004-05-05 09:02:52 51°27.683 2°49.065 10.899433 3.803866 33.892937 33.164118
2004-05-05 09:03:52 51°27.889 2°49.103 10.887265 3.804499 33.90513 32.624768
2004-05-05 09:04:52 51°28.092 2°49.147 10.867922 3.806712 33.935991 30.467366
2004-05-05 09:05:52 51°28.303 2°49.093 10.839312 3.80724 33.967163 27.871742
2004-05-05 09:06:52 51°28.513 2°49.034 10.846257 3.810929 34.02167 27.332392
2004-05-05 09:07:52 51°28.729 2°48.999 10.887543 3.817674 34.073155 26.89417
2004-05-05 09:08:50 51°28.93 2°48.987 10.941656 3.833906 34.175709 26.085144
2004-05-05 09:09:50 51°29.131 2°49.051 10.884905 3.838016 34.227003 26.658204
2004-05-05 09:10:52 51°29.333 2°49.152 10.825605 3.835698 34.24278 23.995161
2004-05-05 09:11:52 51°29.535 2°49.247 10.778672 3.830218 34.260807 21.635503
2004-05-05 09:12:52 51°29.734 2°49.351 10.722754 3.826846 34.274438 20.725349
2004-05-05 09:13:52 51°29.929 2°49.472 10.722754 3.825687 34.277139 22.107435
2004-05-05 09:14:52 51°30.104 2°49.625 10.716353 3.826003 34.284056 24.028871
2004-05-05 09:15:52 51°30.223 2°49.88 10.753826 3.826846 34.284959 25.815469
2004-05-05 09:16:52 51°30.304 2°50.171 10.737318 3.827373 34.290974 26.253691
2004-05-05 09:17:52 51°30.366 2°50.489 10.718904 3.827689 34.296388 25.444665
2004-05-05 09:18:52 51°30.434 2°50.803 10.710182 3.827795 34.304211 24.365965
2004-05-05 09:19:52 51°30.509 2°51.109 10.706331 3.827162 34.306923 23.085007
2004-05-05 09:20:52 51°30.524 2°51.442 10.715146 3.827795 34.309478 22.95017
2004-05-05 09:21:52 51°30.46 2°51.773 10.696448 3.827268 34.302708 21.568084
2004-05-05 09:22:51 51°30.351 2°52.071 10.689162 3.825792 34.297747 18.534238
2004-05-05 09:23:52 51°30.194 2°52.329 10.694174 3.824422 34.289322 17.253281
2004-05-05 09:24:52 51°30.005 2°52.514 10.713708 3.822525 34.26585 15.534101
2004-05-05 09:25:52 51°29.816 2°52.702 10.74752 3.819784 34.207697 18.3994
2004-05-05 09:26:52 51°29.669 2°52.936 10.768985 3.80819 34.074078 23.624358
2004-05-05 09:27:52 51°29.674 2°53.254 10.776957 3.787742 33.85101 32.894443
2004-05-05 09:28:52 51°29.743 2°53.567 10.792714 3.782683 33.790291 37.681178
2004-05-05 09:29:52 51°29.821 2°53.871 10.810505 3.776253 33.708621 41.220665
2004-05-05 09:30:52 51°29.892 2°54.177 10.80981 3.773935 33.679676 43.411777
2004-05-05 09:31:52 51°29.96 2°54.483 10.822177 3.772881 33.665519 43.378067
2004-05-05 09:32:52 51°30.029 2°54.789 10.829773 3.769719 33.626746 46.344494
2004-05-05 09:33:52 51°30.102 2°55.098 10.824586 3.7674 33.604445 48.164802
2004-05-05 09:34:52 51°30.175 2°55.407 10.829402 3.766135 33.591146 49.917691
2004-05-05 09:35:52 51°30.296 2°55.664 10.833663 3.765292 33.582771 51.164939
2004-05-05 09:36:52 51°30.467 2°55.846 10.838756 3.76213 33.546234 51.940255
2004-05-05 09:37:52 51°30.666 2°55.936 10.856766 3.761392 33.527187 52.108802
2004-05-05 09:38:52 51°30.872 2°56.036 10.843803 3.76076 33.522374 53.92911
2004-05-05 09:39:52 51°31.077 2°56.133 10.84922 3.759811 33.507104 55.378614
2004-05-05 09:40:52 51°31.272 2°56.261 10.851118 3.759179 33.500828 56.052802
2004-05-05 09:41:52 51°31.467 2°56.373 10.744784 3.777202 33.724691 45.46805
2004-05-05 09:42:52 51°31.662 2°56.473 10.715981 3.797018 33.990256 30.433657
2004-05-05 09:43:52 51°31.866 2°56.577 10.71561 3.797966 34.006428 30.163982
2004-05-05 09:44:52 51°32.061 2°56.69 10.708373 3.797334 34.006085 30.973007
2004-05-05 09:45:52 51°32.252 2°56.827 10.717327 3.79491 33.980406 32.624768
2004-05-05 09:46:52 51°32.442 2°56.973 10.703919 3.793645 33.966298 32.759606
2004-05-05 09:47:52 51°32.62 2°57.144 10.703779 3.792169 33.959027 31.984289
2004-05-05 09:48:52 51°32.798 2°57.322 10.699047 3.790905 33.942685 33.0967
2004-05-05 09:49:52 51°32.961 2°57.537 10.69617 3.788797 33.926122 35.152973
2004-05-05 09:50:52 51°33.113 2°57.78 10.711249 3.785951 33.896991 36.872153
2004-05-05 09:51:52 51°33.245 2°58.029 10.706239 3.780997 33.848327 38.287947
2004-05-05 09:52:52 51°33.386 2°58.279 10.707955 3.778679 33.820753 40.310512
2004-05-05 09:53:52 51°33.513 2°58.548 10.721084 3.77636 33.79467 42.838717
2004-05-05 09:54:52 51°33.63 2°58.825 10.727485 3.773198 33.755011 44.625315
2004-05-05 09:55:52 51°33.753 2°59.097 10.726094 3.770352 33.723698 45.333212
2004-05-05 09:56:52 51°33.869 2°59.385 10.724192 3.769404 33.705382 46.984973
2004-05-05 09:57:52 51°33.991 2°59.662 10.733283 3.767612 33.695661 46.782717
2004-05-05 09:58:52 51°34.107 2°59.941 10.732077 3.765715 33.671597 47.861418
2004-05-05 09:59:52 51°34.229 3°0.215 10.740425 3.76308 33.640935 50.052529
2004-05-05 10:00:52 51°34.35 3°0.485 10.743068 3.761183 33.616891 51.13123
2004-05-05 10:01:52 51°34.467 3°0.755 10.746963 3.75918 33.590336 52.20993
2004-05-05 10:02:52 51°34.582 3°1.039 10.751368 3.756651 33.568843 54.198785
2004-05-05 10:03:52 51°34.564 3°1.372 10.751229 3.756966 33.535993 55.243777
2004-05-05 10:04:52 51°34.382 3°1.598 10.745526 3.755386 33.526881 56.491024
2004-05-05 10:05:52 51°34.15 3°1.578 10.748725 3.7537 33.526259 57.502306
2004-05-05 10:06:52 51°33.925 3°1.453 10.751322 3.752224 33.521126 57.603435
2004-05-05 10:07:50 51°33.708 3°1.321 10.75823 3.75233 33.516302 58.007947
2004-05-05 10:08:52 51°33.48 3°1.178 10.774964 3.752435 33.509278 58.715845
2004-05-05 10:09:52 51°33.264 3°1.04 10.784187 3.752329 33.497963 60.367606
2004-05-05 10:10:52 51°33.047 3°0.903 10.784419 3.750959 33.48068 60.603571
2004-05-05 10:11:52 51°32.828 3°0.766 10.791972 3.752013 33.483828 59.086648
2004-05-05 10:12:52 51°32.605 3°0.625 10.804992 3.752435 33.484355 58.547298
2004-05-05 10:13:50 51°32.393 3°0.488 10.80981 3.753594 33.488549 58.075366
2004-05-05 10:14:52 51°32.166 3°0.346 10.821066 3.752961 33.469824 58.513589
2004-05-05 10:15:52 51°31.946 3°0.209 10.838756 3.752223 33.450799 59.828255
2004-05-05 10:16:52 51°31.727 3°0.074 10.839173 3.752118 33.441714 60.300187
2004-05-05 10:17:52 51°31.509 2°59.938 10.84922 3.753066 33.449667 60.7047
2004-05-05 10:18:52 51°31.293 2°59.804 10.863802 3.751591 33.422613 62.92952
2004-05-05 10:19:52 51°31.077 2°59.672 10.876391 3.750747 33.404038 64.749828
2004-05-05 10:20:52 51°30.861 2°59.552 10.931855 3.747796 33.35512 67.749965
2004-05-05 10:21:52 51°30.649 2°59.432 11.050719 3.733462 33.109165 68.120768
2004-05-05 10:22:50 51°30.44 2°59.314 11.061472 3.731353 33.042404 68.087059
2004-05-05 10:23:52 51°30.217 2°59.192 11.056765 3.732723 33.054475 68.087059
2004-05-05 10:24:52 51°30.003 2°59.074 11.095244 3.732934 33.057987 68.120768
2004-05-05 10:25:52 51°29.791 2°58.954 11.146514 3.724713 32.919832 68.053349
2004-05-05 10:26:52 51°29.578 2°58.833 11.184479 3.721867 32.85414 68.053349
2004-05-05 10:27:52 51°29.366 2°58.711 11.219661 3.719443 32.80479 68.087059
2004-05-05 10:28:52 51°29.155 2°58.588 11.292175 3.717018 32.739268 68.053349
2004-05-05 10:29:52 51°28.944 2°58.463 11.334974 3.714383 32.650759 68.053349
2004-05-05 10:30:52 51°28.734 2°58.34 11.345222 3.714382 32.626178 68.053349
2004-05-05 10:31:52 51°28.521 2°58.213 11.341913 3.714804 32.630298 68.01964
2004-05-05 10:32:52 51°28.31 2°58.088 11.306337 3.716385 32.653476 68.01964
2004-05-05 10:33:52 51°28.098 2°57.964 11.276538 3.719758 32.718131 67.98593
2004-05-05 10:34:52 51°27.888 2°57.846 11.262093 3.721233 32.749504 68.053349
2004-05-05 10:35:52 51°27.675 2°57.723 11.256986 3.721971 32.772268 68.053349
2004-05-05 10:36:52 51°27.463 2°57.597 11.238303 3.722814 32.786186 68.01964
2004-05-05 10:37:52 51°27.249 2°57.474 11.221871 3.724185 32.812354 68.01964
2004-05-05 10:38:52 51°27.036 2°57.351 11.206907 3.727136 32.861856 68.087059
2004-05-05 10:39:52 51°26.822 2°57.233 11.170936 3.729033 32.899654 68.053349
2004-05-05 10:40:52 51°26.607 2°57.117 11.159924 3.731036 32.939248 68.01964
2004-05-05 10:41:52 51°26.393 2°57.003 11.141121 3.732828 32.974681 68.087059
2004-05-05 10:42:52 51°26.178 2°56.894 11.127569 3.7362 33.024279 68.087059
2004-05-05 10:43:52 51°25.966 2°56.785 11.126923 3.737149 33.035758 68.053349
2004-05-05 10:44:52 51°25.753 2°56.678 11.132087 3.736622 33.032003 68.053349
2004-05-05 10:45:52 51°25.541 2°56.567 11.148403 3.736516 33.015954 68.120768
2004-05-05 10:46:52 51°25.332 2°56.451 11.161122 3.736095 33.005379 68.087059
2004-05-05 10:47:52 51°25.125 2°56.338 11.191388 3.735778 32.985143 68.053349
2004-05-05 10:48:52 51°24.92 2°56.224 11.237889 3.736832 32.96414 68.053349
2004-05-05 10:49:52 51°24.718 2°56.112 11.278838 3.737569 32.932264 68.01964
2004-05-05 10:50:52 51°24.509 2°56.042 11.315992 3.727346 32.79171 67.98593
2004-05-05 10:51:52 51°24.292 2°56.018 11.34081 3.721022 32.700225 68.053349
2004-05-05 10:52:52 51°24.074 2°55.992 11.361026 3.722181 32.69468 67.98593
2004-05-05 10:53:52 51°23.855 2°55.967 11.370948 3.719125 32.64866 67.98593
2004-05-05 10:54:52 51°23.64 2°55.904 11.37274 3.719441 32.644733 68.053349
2004-05-05 10:55:52 51°23.433 2°55.792 11.377883 3.714171 32.591173 68.01964
2004-05-05 10:56:52 51°23.231 2°55.67 11.38119 3.716806 32.612696 68.053349
2004-05-05 10:57:52 51°23.03 2°55.552 11.374485 3.720284 32.648759 67.98593
2004-05-05 10:58:52 51°22.829 2°55.436 11.363691 3.728609 32.738521 68.01964
2004-05-05 10:59:52 51°22.627 2°55.323 11.359373 3.721654 32.678286 68.01964
2004-05-05 11:00:52 51°22.427 2°55.211 11.41085 3.725764 32.726893 68.01964
2004-05-05 11:01:52 51°22.228 2°55.102 11.482559 3.722285 32.614369 68.01964
2004-05-05 11:02:52 51°22.031 2°54.993 11.542554 3.731032 32.64438 68.01964
2004-05-05 11:03:52 51°21.834 2°54.886 11.565547 3.730083 32.589115 68.01964
2004-05-05 11:04:52 51°21.638 2°54.782 11.572187 3.733349 32.612521 68.01964
2004-05-05 11:05:52 51°21.438 2°54.695 11.56312 3.736511 32.643957 68.01964
2004-05-05 11:06:52 51°21.245 2°54.589 11.55854 3.740516 32.685694 67.98593
2004-05-05 11:07:52 51°21.06 2°54.461 11.570951 3.742518 32.706567 68.01964
2004-05-05 11:08:52 51°20.872 2°54.334 11.573424 3.74431 32.718403 67.952221
2004-05-05 11:09:52 51°20.685 2°54.211 11.572783 3.746629 32.739556 68.01964
2004-05-05 11:10:52 51°20.5 2°54.082 11.583222 3.748104 32.748312 67.98593
2004-05-05 11:11:52 51°20.314 2°53.959 11.602677 3.748947 32.745322 68.01964
2004-05-05 11:12:52 51°20.129 2°53.832 11.604783 3.750422 32.748482 67.98593
2004-05-05 11:13:52 51°19.943 2°53.705 11.597551 3.752003 32.764548 67.98593
2004-05-05 11:14:52 51°19.757 2°53.579 11.592653 3.754322 32.793386 68.01964
2004-05-05 11:15:52 51°19.57 2°53.453 11.594484 3.756641 32.818735 67.98593
2004-05-05 11:16:52 51°19.382 2°53.327 11.595949 3.758959 32.835678 67.98593
2004-05-05 11:17:52 51°19.195 2°53.202 11.588762 3.760962 32.85936 67.98593
2004-05-05 11:18:52 51°19.008 2°53.079 11.601258 3.763596 32.880076 68.01964
2004-05-05 11:19:52 51°18.822 2°52.958 11.591966 3.762332 32.867074 67.98593
2004-05-05 11:20:52 51°18.636 2°52.845 11.59192 3.763807 32.885636 67.952221
2004-05-05 11:21:52 51°18.442 2°52.757 11.592653 3.767074 32.916717 67.952221
2004-05-05 11:22:52 51°18.25 2°52.668 11.596132 3.781303 33.055887 67.98593
2004-05-05 11:23:52 51°18.059 2°52.578 11.601625 3.792896 33.163112 68.053349
2004-05-05 11:24:52 51°17.862 2°52.508 11.612288 3.806809 33.295788 67.98593
2004-05-05 11:25:52 51°17.666 2°52.448 11.629997 3.815452 33.366477 68.01964
2004-05-05 11:26:52 51°17.47 2°52.388 11.655978 3.822092 33.409792 68.01964
2004-05-05 11:27:52 51°17.27 2°52.349 11.683047 3.827256 33.440132 68.01964
2004-05-05 11:28:52 51°17.069 2°52.449 11.699868 3.830207 33.444636 68.087059
2004-05-05 11:29:52 51°16.874 2°52.588 11.698222 3.829047 33.424817 68.087059
2004-05-05 11:30:52 51°16.779 2°52.892 11.83273 3.823566 33.366544 67.98593
2004-05-05 11:31:52 51°16.661 2°52.77 11.773545 3.823249 33.284156 68.053349
2004-05-05 11:32:52 51°16.832 2°52.622 11.752405 3.823882 33.307255 67.952221
2004-05-05 11:33:52 51°16.999 2°52.7 11.723812 3.821458 33.318401 67.952221
2004-05-05 11:34:52 51°17.046 2°52.789 11.719928 3.823039 33.345101 68.01964
2004-05-05 11:35:52 51°17.074 2°52.828 11.717598 3.823672 33.358341 67.952221
2004-05-05 11:36:52 51°17.104 2°52.873 11.715359 3.823566 33.359445 67.98593
2004-05-05 11:37:52 51°17.136 2°52.923 11.71906 3.823566 33.358736 67.952221
2004-05-05 11:38:52 51°17.169 2°52.976 11.722578 3.823988 33.355738 68.01964
2004-05-05 11:39:52 51°17.199 2°53.033 11.724954 3.824726 33.361489 67.98593
2004-05-05 11:40:52 51°17.229 2°53.091 11.941514 3.825147 33.362748 10.174306
2004-05-05 11:41:52 51°17.257 2°53.149 12.042846 3.824936 33.362118 9.061896
2004-05-05 11:42:54 51°17.285 2°53.208 12.174614 3.825147 33.362038 8.320289
2004-05-05 11:43:54 51°17.313 2°53.264 12.281299 3.825253 33.362353 7.780939
2004-05-05 11:44:54 51°17.339 2°53.32 12.394552 3.825569 33.361878 7.443845
2004-05-05 11:45:54 51°17.367 2°53.376 12.509192 3.82599 33.356755 7.106751
2004-05-05 11:46:54 51°17.395 2°53.43 12.63008 3.826517 33.354784 7.039332
2004-05-05 11:47:54 51°17.423 2°53.484 12.728567 3.827044 33.353523 7.039332
2004-05-05 11:48:54 51°17.451 2°53.54 12.841197 3.827993 33.353522 6.971913
2004-05-05 11:49:54 51°17.48 2°53.596 12.950362 3.829046 33.353837 7.039332
2004-05-05 11:50:54 51°17.491 2°53.704 13.053528 3.830311 33.356198 7.106751
2004-05-05 11:51:54 51°17.412 2°53.794 13.135203 3.831576 33.363513 7.106751
2004-05-05 11:52:54 51°17.228 2°53.873 13.251168 3.832841 33.363748 7.14046
2004-05-05 11:53:53 51°17.031 2°53.943 13.343349 3.834421 33.36988 7.14046
2004-05-05 11:54:54 51°16.824 2°54.012 13.4281 3.835686 33.37436 7.241589
2004-05-05 11:55:54 51°16.624 2°54.057 13.522439 3.837162 33.380175 7.17417
2004-05-05 11:56:52 51°16.43 2°54.091 13.609407 3.838532 33.385673 7.207879
2004-05-05 11:57:54 51°16.224 2°54.117 13.701363 3.839797 33.389441 7.309007
2004-05-05 11:58:54 51°16.022 2°54.143 13.778044 3.841061 33.393916 7.376426
2004-05-05 11:59:54 51°15.821 2°54.168 13.867956 3.842221 33.397368 7.511264
2004-05-05 12:00:55 51°15.617 2°54.219 13.958719 3.843591 33.402861 7.71352
2004-05-05 12:01:54 51°15.42 2°54.283 14.045653 3.84475 33.407018 7.780939
2004-05-05 12:02:54 51°15.22 2°54.365 14.11542 3.845804 33.410861 7.882067
2004-05-05 12:03:53 51°15.026 2°54.455 14.199819 3.846963 33.415722 7.71352
2004-05-05 12:04:54 51°14.832 2°54.605 14.285036 3.848123 33.41917 7.915777
2004-05-05 12:05:54 51°14.641 2°54.759 14.353501 3.849071 33.421283 8.050614
2004-05-05 12:06:53 51°14.462 2°54.945 14.424091 3.849915 33.424496 8.28658
2004-05-05 12:07:54 51°14.302 2°55.173 14.493511 3.850863 33.428021 8.353999
2004-05-05 12:08:53 51°14.19 2°55.37 14.56715 3.851812 33.430132 7.780939
2004-05-05 12:09:53 51°14.072 2°55.473 14.629469 3.852549 33.43303 7.646101
2004-05-05 12:10:54 51°13.952 2°55.555 14.700251 3.853393 33.436241 7.679811
2004-05-05 12:11:54 51°13.841 2°55.633 14.776721 3.854341 33.438351 7.646101
2004-05-05 12:12:54 51°13.74 2°55.731 14.815425 3.855079 33.441247 7.612392
2004-05-05 12:13:53 51°13.68 2°55.837 14.911588 3.855817 33.442731 7.612392
2004-05-05 12:14:54 51°13.64 2°55.946 14.985209 3.85666 33.444527 7.578683
2004-05-05 12:15:54 51°13.608 2°56.053 15.045274 3.857503 33.448441 7.578683